createdAt,value
2022-11-27T00:00:26.433Z,8.79
2022-11-27T00:01:26.443Z,8.80
2022-11-27T00:02:26.436Z,8.80
2022-11-27T00:03:26.535Z,8.77
2022-11-27T00:04:26.410Z,8.77
2022-11-27T00:05:26.399Z,8.80
2022-11-27T00:06:26.352Z,8.80
2022-11-27T00:07:26.395Z,8.81
2022-11-27T00:08:26.380Z,8.81
2022-11-27T00:09:26.344Z,8.79
2022-11-27T00:10:26.354Z,8.81
2022-11-27T00:11:26.323Z,8.80
2022-11-27T00:12:26.293Z,8.81
2022-11-27T00:13:26.333Z,8.84
2022-11-27T00:14:26.312Z,8.80
2022-11-27T00:15:26.263Z,8.76
2022-11-27T00:16:26.399Z,8.79
2022-11-27T00:17:26.273Z,8.79
2022-11-27T00:18:26.243Z,8.79
2022-11-27T00:19:26.252Z,8.79
2022-11-27T00:20:29.698Z,8.76
2022-11-27T00:21:26.225Z,8.77
2022-11-27T00:22:26.226Z,8.80
2022-11-27T00:23:26.213Z,8.76
2022-11-27T00:24:26.192Z,8.76
2022-11-27T00:25:26.152Z,8.76
2022-11-27T00:26:26.193Z,8.73
2022-11-27T00:27:26.143Z,8.73
2022-11-27T00:28:26.172Z,8.73
2022-11-27T00:29:26.143Z,8.70
2022-11-27T00:30:26.123Z,8.70
2022-11-27T00:31:26.291Z,8.68
2022-11-27T00:32:26.093Z,8.68
2022-11-27T00:33:26.105Z,8.66
2022-11-27T00:34:26.202Z,8.65
2022-11-27T00:35:26.091Z,8.63
2022-11-27T00:36:26.056Z,8.63
2022-11-27T00:37:26.056Z,8.68
2022-11-27T00:38:26.076Z,8.63
2022-11-27T00:39:26.035Z,8.65
2022-11-27T00:40:26.039Z,8.68
2022-11-27T00:41:26.039Z,8.65
2022-11-27T00:42:25.997Z,8.66
2022-11-27T00:43:26.015Z,8.70
2022-11-27T00:44:25.952Z,8.68
2022-11-27T00:45:25.986Z,8.65
2022-11-27T00:46:28.774Z,8.68
2022-11-27T00:47:25.971Z,8.66
2022-11-27T00:48:25.977Z,8.68
2022-11-27T00:49:25.929Z,8.71
2022-11-27T00:50:26.078Z,8.71
2022-11-27T00:51:25.931Z,8.71
2022-11-27T00:52:25.921Z,8.71
2022-11-27T00:53:25.938Z,8.70
2022-11-27T00:54:25.907Z,8.70
2022-11-27T00:55:25.899Z,8.74
2022-11-27T00:56:25.887Z,8.68
2022-11-27T00:57:25.860Z,8.71
2022-11-27T00:58:25.846Z,8.71
2022-11-27T00:59:25.839Z,8.73
2022-11-27T01:00:25.812Z,8.73
2022-11-27T01:01:25.879Z,8.71
2022-11-27T01:02:25.865Z,8.70
2022-11-27T01:03:25.785Z,8.71
2022-11-27T01:04:25.821Z,8.73
2022-11-27T01:05:25.799Z,8.73
2022-11-27T01:06:25.783Z,8.76
2022-11-27T01:07:25.820Z,8.71
2022-11-27T01:08:25.741Z,8.73
2022-11-27T01:09:25.712Z,8.71
2022-11-27T01:10:25.733Z,8.68
2022-11-27T01:11:25.749Z,8.70
2022-11-27T01:12:25.690Z,8.73
2022-11-27T01:13:25.682Z,8.74
2022-11-27T01:14:25.680Z,8.77
2022-11-27T01:15:25.725Z,8.74
2022-11-27T01:16:25.792Z,8.73
2022-11-27T01:17:25.645Z,8.73
2022-11-27T01:18:25.633Z,8.70
2022-11-27T01:19:25.672Z,8.70
2022-11-27T01:20:25.603Z,8.73
2022-11-27T01:21:25.635Z,8.74
2022-11-27T01:22:25.621Z,8.71
2022-11-27T01:23:25.583Z,8.76
2022-11-27T01:24:25.602Z,8.73
2022-11-27T01:25:27.115Z,8.74
2022-11-27T01:26:25.574Z,8.74
2022-11-27T01:27:25.551Z,8.77
2022-11-27T01:28:25.535Z,8.76
2022-11-27T01:29:25.565Z,8.73
2022-11-27T01:30:25.512Z,8.73
2022-11-27T01:31:25.602Z,8.74
2022-11-27T01:32:25.494Z,8.73
2022-11-27T01:33:25.486Z,8.74
2022-11-27T01:34:25.493Z,8.76
2022-11-27T01:35:25.505Z,8.73
2022-11-27T01:36:25.464Z,8.71
2022-11-27T01:37:25.464Z,8.68
2022-11-27T01:38:25.438Z,8.70
2022-11-27T01:39:25.505Z,8.65
2022-11-27T01:40:25.450Z,8.66
2022-11-27T01:41:25.401Z,8.65
2022-11-27T01:42:25.384Z,8.65
2022-11-27T01:43:25.391Z,8.65
2022-11-27T01:44:25.472Z,8.63
2022-11-27T01:45:25.444Z,8.65
2022-11-27T01:46:25.432Z,8.68
2022-11-27T01:47:25.335Z,8.65
2022-11-27T01:48:25.327Z,8.65
2022-11-27T01:49:25.366Z,8.66
2022-11-27T01:50:25.350Z,8.65
2022-11-27T01:51:25.350Z,8.62
2022-11-27T01:52:25.296Z,8.70
2022-11-27T01:53:25.318Z,8.66
2022-11-27T01:54:25.593Z,8.66
2022-11-27T01:55:25.293Z,8.66
2022-11-27T01:56:25.266Z,8.66
2022-11-27T01:57:25.226Z,8.63
2022-11-27T01:58:25.256Z,8.68
2022-11-27T01:59:25.250Z,8.63
2022-11-27T02:00:25.231Z,8.66
2022-11-27T02:01:25.233Z,8.63
2022-11-27T02:02:25.292Z,8.63
2022-11-27T02:03:25.321Z,8.61
2022-11-27T02:04:25.201Z,8.61
2022-11-27T02:05:25.201Z,8.61
2022-11-27T02:06:25.161Z,8.62
2022-11-27T02:07:25.173Z,8.61
2022-11-27T02:08:25.146Z,8.62
2022-11-27T02:09:25.132Z,8.59
2022-11-27T02:10:25.312Z,8.58
2022-11-27T02:11:25.142Z,8.55
2022-11-27T02:12:25.504Z,8.55
2022-11-27T02:13:25.094Z,8.53
2022-11-27T02:14:25.054Z,8.53
2022-11-27T02:15:25.131Z,8.53
2022-11-27T02:16:25.107Z,8.48
2022-11-27T02:17:25.080Z,8.50
2022-11-27T02:18:25.017Z,8.50
2022-11-27T02:19:25.000Z,8.47
2022-11-27T02:20:25.045Z,8.45
2022-11-27T02:21:25.004Z,8.45
2022-11-27T02:22:25.052Z,8.41
2022-11-27T02:23:24.986Z,8.41
2022-11-27T02:24:24.984Z,8.40
2022-11-27T02:25:28.282Z,8.38
2022-11-27T02:26:24.970Z,8.37
2022-11-27T02:27:24.982Z,8.37
2022-11-27T02:28:24.963Z,8.36
2022-11-27T02:29:24.925Z,8.34
2022-11-27T02:30:24.914Z,8.33
2022-11-27T02:31:24.978Z,8.30
2022-11-27T02:32:24.906Z,8.28
2022-11-27T02:33:24.888Z,8.30
2022-11-27T02:34:24.859Z,8.26
2022-11-27T02:35:24.863Z,8.26
2022-11-27T02:36:24.875Z,8.22
2022-11-27T02:37:24.866Z,8.26
2022-11-27T02:38:24.815Z,8.23
2022-11-27T02:39:24.799Z,8.22
2022-11-27T02:40:24.834Z,8.20
2022-11-27T02:41:24.805Z,8.18
2022-11-27T02:42:24.791Z,8.19
2022-11-27T02:43:24.781Z,8.20
2022-11-27T02:44:24.763Z,8.18
2022-11-27T02:45:24.738Z,8.19
2022-11-27T02:46:24.796Z,8.18
2022-11-27T02:47:24.748Z,8.18
2022-11-27T02:48:24.749Z,8.19
2022-11-27T02:49:24.719Z,8.18
2022-11-27T02:50:24.718Z,8.16
2022-11-27T02:51:24.716Z,8.20
2022-11-27T02:52:24.718Z,8.20
2022-11-27T02:53:24.757Z,8.19
2022-11-27T02:54:24.671Z,8.19
2022-11-27T02:55:24.651Z,8.16
2022-11-27T02:56:24.716Z,8.18
2022-11-27T02:57:24.644Z,8.20
2022-11-27T02:58:24.628Z,8.19
2022-11-27T02:59:24.660Z,8.19
2022-11-27T03:00:24.582Z,8.16
2022-11-27T03:01:24.677Z,8.19
2022-11-27T03:02:24.655Z,8.15
2022-11-27T03:03:24.589Z,8.16
2022-11-27T03:04:24.575Z,8.18
2022-11-27T03:05:24.569Z,8.16
2022-11-27T03:06:24.573Z,8.18
2022-11-27T03:07:24.607Z,8.12
2022-11-27T03:08:24.538Z,8.12
2022-11-27T03:09:24.532Z,8.10
2022-11-27T03:10:24.501Z,8.08
2022-11-27T03:11:24.495Z,8.07
2022-11-27T03:12:24.547Z,8.07
2022-11-27T03:13:24.461Z,8.07
2022-11-27T03:14:24.557Z,8.07
2022-11-27T03:15:24.468Z,8.07
2022-11-27T03:16:24.517Z,8.07
2022-11-27T03:17:24.620Z,8.07
2022-11-27T03:18:24.433Z,8.05
2022-11-27T03:19:24.516Z,8.07
2022-11-27T03:20:24.407Z,8.02
2022-11-27T03:21:24.383Z,8.04
2022-11-27T03:22:24.415Z,8.01
2022-11-27T03:23:24.421Z,8.01
2022-11-27T03:24:24.462Z,8.01
2022-11-27T03:25:24.368Z,8.02
2022-11-27T03:26:24.364Z,8.02
2022-11-27T03:27:24.356Z,8.02
2022-11-27T03:28:24.326Z,7.98
2022-11-27T03:29:24.367Z,8.00
2022-11-27T03:30:24.310Z,7.97
2022-11-27T03:31:24.424Z,7.93
2022-11-27T03:32:24.326Z,7.95
2022-11-27T03:33:24.267Z,7.98
2022-11-27T03:34:24.339Z,7.95
2022-11-27T03:35:24.276Z,7.97
2022-11-27T03:36:24.246Z,7.95
2022-11-27T03:37:24.256Z,7.90
2022-11-27T03:38:24.238Z,7.89
2022-11-27T03:39:24.199Z,7.89
2022-11-27T03:40:24.227Z,7.90
2022-11-27T03:41:24.208Z,7.90
2022-11-27T03:42:24.191Z,7.92
2022-11-27T03:43:24.176Z,7.89
2022-11-27T03:44:24.153Z,7.89
2022-11-27T03:45:24.165Z,7.89
2022-11-27T03:46:24.168Z,7.89
2022-11-27T03:47:24.186Z,7.89
2022-11-27T03:48:24.100Z,7.90
2022-11-27T03:49:24.138Z,7.87
2022-11-27T03:50:24.086Z,7.85
2022-11-27T03:51:24.081Z,7.86
2022-11-27T03:52:24.140Z,7.86
2022-11-27T03:53:24.099Z,7.83
2022-11-27T03:54:24.055Z,7.85
2022-11-27T03:55:24.042Z,7.83
2022-11-27T03:56:24.057Z,7.80
2022-11-27T03:57:24.102Z,7.80
2022-11-27T03:58:24.034Z,7.80
2022-11-27T03:59:24.032Z,7.83
2022-11-27T04:00:23.991Z,7.80
2022-11-27T04:01:24.058Z,7.80
2022-11-27T04:02:24.022Z,7.80
2022-11-27T04:03:24.004Z,7.80
2022-11-27T04:04:24.011Z,7.82
2022-11-27T04:05:23.942Z,7.79
2022-11-27T04:06:23.981Z,7.80
2022-11-27T04:07:24.036Z,7.75
2022-11-27T04:08:23.959Z,7.72
2022-11-27T04:09:23.894Z,7.71
2022-11-27T04:10:23.895Z,7.72
2022-11-27T04:11:23.897Z,7.72
2022-11-27T04:12:23.874Z,7.71
2022-11-27T04:13:23.902Z,7.72
2022-11-27T04:14:23.954Z,7.74
2022-11-27T04:15:23.829Z,7.74
2022-11-27T04:16:23.873Z,7.75
2022-11-27T04:17:23.862Z,7.72
2022-11-27T04:18:23.830Z,7.67
2022-11-27T04:19:23.913Z,7.69
2022-11-27T04:20:23.836Z,7.71
2022-11-27T04:21:23.815Z,7.71
2022-11-27T04:22:23.846Z,7.69
2022-11-27T04:23:23.799Z,7.69
2022-11-27T04:24:23.835Z,7.69
2022-11-27T04:25:23.740Z,7.67
2022-11-27T04:26:23.759Z,7.63
2022-11-27T04:27:23.752Z,7.63
2022-11-27T04:28:23.766Z,7.57
2022-11-27T04:29:23.770Z,7.53
2022-11-27T04:30:23.821Z,7.55
2022-11-27T04:31:23.795Z,7.52
2022-11-27T04:32:23.694Z,7.53
2022-11-27T04:33:23.652Z,7.50
2022-11-27T04:34:23.757Z,7.52
2022-11-27T04:35:23.663Z,7.50
2022-11-27T04:36:23.681Z,7.53
2022-11-27T04:37:23.626Z,7.55
2022-11-27T04:38:23.634Z,7.55
2022-11-27T04:39:23.636Z,7.53
2022-11-27T04:40:23.626Z,7.53
2022-11-27T04:41:23.616Z,7.50
2022-11-27T04:42:23.658Z,7.50
2022-11-27T04:43:23.556Z,7.48
2022-11-27T04:44:23.556Z,7.49
2022-11-27T04:45:23.665Z,7.46
2022-11-27T04:46:23.685Z,7.43
2022-11-27T04:47:23.576Z,7.45
2022-11-27T04:48:23.533Z,7.43
2022-11-27T04:49:23.512Z,7.40
2022-11-27T04:50:23.487Z,7.40
2022-11-27T04:51:23.532Z,7.42
2022-11-27T04:52:23.476Z,7.39
2022-11-27T04:53:23.497Z,7.35
2022-11-27T04:54:23.498Z,7.32
2022-11-27T04:55:23.462Z,7.32
2022-11-27T04:56:23.478Z,7.30
2022-11-27T04:57:23.469Z,7.27
2022-11-27T04:58:23.447Z,7.25
2022-11-27T04:59:23.412Z,7.23
2022-11-27T05:00:23.433Z,7.17
2022-11-27T05:01:23.471Z,7.16
2022-11-27T05:02:23.432Z,7.12
2022-11-27T05:03:23.411Z,7.13
2022-11-27T05:04:23.421Z,7.10
2022-11-27T05:05:23.360Z,7.10
2022-11-27T05:06:23.333Z,7.07
2022-11-27T05:07:23.521Z,7.05
2022-11-27T05:08:23.311Z,7.03
2022-11-27T05:09:23.320Z,7.02
2022-11-27T05:10:23.344Z,6.97
2022-11-27T05:11:23.352Z,6.95
2022-11-27T05:12:23.271Z,6.94
2022-11-27T05:13:23.302Z,6.89
2022-11-27T05:14:23.267Z,6.88
2022-11-27T05:15:23.315Z,6.87
2022-11-27T05:16:23.353Z,6.87
2022-11-27T05:17:23.231Z,6.84
2022-11-27T05:18:23.218Z,6.84
2022-11-27T05:19:23.234Z,6.81
2022-11-27T05:20:23.230Z,6.80
2022-11-27T05:21:23.200Z,6.79
2022-11-27T05:22:23.173Z,6.79
2022-11-27T05:23:23.163Z,6.77
2022-11-27T05:24:23.412Z,6.74
2022-11-27T05:25:23.281Z,6.71
2022-11-27T05:26:23.215Z,6.71
2022-11-27T05:27:23.226Z,6.67
2022-11-27T05:28:26.675Z,6.66
2022-11-27T05:29:23.109Z,6.62
2022-11-27T05:30:23.094Z,6.59
2022-11-27T05:31:23.125Z,6.55
2022-11-27T05:32:23.087Z,6.56
2022-11-27T05:33:23.075Z,6.54
2022-11-27T05:34:23.135Z,6.51
2022-11-27T05:35:23.045Z,6.52
2022-11-27T05:36:23.035Z,6.49
2022-11-27T05:37:23.047Z,6.46
2022-11-27T05:38:23.045Z,6.46
2022-11-27T05:39:22.994Z,6.44
2022-11-27T05:40:23.017Z,6.41
2022-11-27T05:41:22.997Z,6.38
2022-11-27T05:42:22.957Z,6.36
2022-11-27T05:43:22.970Z,6.31
2022-11-27T05:44:22.981Z,6.30
2022-11-27T05:45:22.968Z,6.30
2022-11-27T05:46:23.041Z,6.27
2022-11-27T05:47:22.946Z,6.22
2022-11-27T05:48:22.918Z,6.19
2022-11-27T05:49:22.927Z,6.18
2022-11-27T05:50:22.829Z,6.18
2022-11-27T05:51:22.886Z,6.18
2022-11-27T05:52:22.885Z,6.19
2022-11-27T05:53:22.867Z,6.22
2022-11-27T05:54:22.887Z,6.17
2022-11-27T05:55:22.834Z,6.18
2022-11-27T05:56:22.771Z,6.15
2022-11-27T05:57:22.838Z,6.12
2022-11-27T05:58:22.848Z,6.14
2022-11-27T05:59:22.861Z,6.09
2022-11-27T06:00:22.842Z,6.06
2022-11-27T06:01:22.802Z,6.08
2022-11-27T06:02:29.009Z,6.06
2022-11-27T06:03:23.775Z,6.04
2022-11-27T06:04:22.722Z,6.03
2022-11-27T06:05:22.709Z,6.03
2022-11-27T06:06:22.817Z,6.00
2022-11-27T06:07:23.712Z,6.00
2022-11-27T06:08:22.689Z,6.01
2022-11-27T06:09:22.718Z,5.99
2022-11-27T06:10:22.641Z,6.01
2022-11-27T06:11:22.702Z,5.97
2022-11-27T06:12:22.696Z,5.99
2022-11-27T06:13:22.668Z,5.96
2022-11-27T06:14:22.628Z,5.94
2022-11-27T06:15:22.590Z,5.91
2022-11-27T06:16:22.625Z,5.89
2022-11-27T06:17:22.559Z,5.89
2022-11-27T06:18:22.540Z,5.89
2022-11-27T06:19:22.562Z,5.90
2022-11-27T06:20:23.229Z,5.86
2022-11-27T06:21:22.532Z,5.90
2022-11-27T06:22:22.539Z,5.89
2022-11-27T06:23:22.521Z,5.89
2022-11-27T06:24:22.494Z,5.85
2022-11-27T06:25:22.511Z,5.86
2022-11-27T06:26:22.529Z,5.85
2022-11-27T06:27:22.473Z,5.83
2022-11-27T06:28:22.452Z,5.81
2022-11-27T06:29:22.472Z,5.81
2022-11-27T06:30:22.481Z,5.79
2022-11-27T06:31:22.515Z,5.76
2022-11-27T06:32:22.404Z,5.79
2022-11-27T06:33:22.402Z,5.79
2022-11-27T06:34:22.403Z,5.78
2022-11-27T06:35:22.417Z,5.76
2022-11-27T06:36:22.409Z,5.76
2022-11-27T06:37:22.374Z,5.75
2022-11-27T06:38:22.373Z,5.74
2022-11-27T06:39:22.353Z,5.72
2022-11-27T06:40:22.344Z,5.68
2022-11-27T06:41:22.348Z,5.65
2022-11-27T06:42:22.346Z,5.67
2022-11-27T06:43:22.314Z,5.65
2022-11-27T06:44:22.323Z,5.64
2022-11-27T06:45:22.287Z,5.63
2022-11-27T06:46:22.386Z,5.64
2022-11-27T06:47:22.283Z,5.67
2022-11-27T06:48:22.264Z,5.67
2022-11-27T06:49:22.279Z,5.65
2022-11-27T06:50:22.265Z,5.67
2022-11-27T06:51:22.233Z,5.65
2022-11-27T06:52:22.225Z,5.67
2022-11-27T06:53:22.224Z,5.65
2022-11-27T06:54:22.224Z,5.67
2022-11-27T06:55:22.205Z,5.64
2022-11-27T06:56:22.165Z,5.63
2022-11-27T06:57:22.157Z,5.63
2022-11-27T06:58:26.468Z,5.63
2022-11-27T06:59:23.197Z,5.65
2022-11-27T07:00:22.148Z,5.65
2022-11-27T07:01:22.242Z,5.67
2022-11-27T07:02:22.157Z,5.68
2022-11-27T07:03:22.117Z,5.68
2022-11-27T07:04:22.128Z,5.68
2022-11-27T07:05:22.087Z,5.68
2022-11-27T07:06:22.070Z,5.65
2022-11-27T07:07:22.147Z,5.65
2022-11-27T07:08:22.078Z,5.67
2022-11-27T07:09:22.058Z,5.68
2022-11-27T07:10:22.047Z,5.64
2022-11-27T07:11:22.038Z,5.63
2022-11-27T07:12:22.006Z,5.67
2022-11-27T07:13:22.038Z,5.67
2022-11-27T07:14:22.008Z,5.67
2022-11-27T07:15:21.981Z,5.68
2022-11-27T07:16:22.176Z,5.65
2022-11-27T07:17:21.986Z,5.65
2022-11-27T07:18:21.949Z,5.63
2022-11-27T07:19:21.952Z,5.61
2022-11-27T07:20:21.921Z,5.63
2022-11-27T07:21:21.934Z,5.61
2022-11-27T07:22:21.931Z,5.63
2022-11-27T07:23:21.919Z,5.61
2022-11-27T07:24:21.930Z,5.64
2022-11-27T07:25:21.889Z,5.63
2022-11-27T07:26:21.905Z,5.61
2022-11-27T07:27:21.855Z,5.63
2022-11-27T07:28:21.860Z,5.60
2022-11-27T07:29:21.839Z,5.63
2022-11-27T07:30:21.819Z,5.63
2022-11-27T07:31:21.902Z,5.63
2022-11-27T07:32:21.854Z,5.56
2022-11-27T07:33:21.797Z,5.49
2022-11-27T07:34:22.084Z,5.53
2022-11-27T07:35:21.781Z,5.53
2022-11-27T07:36:21.810Z,5.56
2022-11-27T07:37:21.772Z,5.54
2022-11-27T07:38:21.762Z,5.57
2022-11-27T07:39:39.427Z,5.57
2022-11-27T07:40:22.731Z,5.61
2022-11-27T07:41:21.755Z,5.61
2022-11-27T07:42:38.806Z,5.57
2022-11-27T07:43:22.716Z,5.58
2022-11-27T07:44:21.713Z,5.58
2022-11-27T07:45:21.779Z,5.56
2022-11-27T07:46:21.726Z,5.57
2022-11-27T07:47:21.700Z,5.57
2022-11-27T07:48:21.641Z,5.61
2022-11-27T07:49:21.677Z,5.61
2022-11-27T07:50:21.636Z,5.61
2022-11-27T07:51:21.642Z,5.67
2022-11-27T07:52:21.631Z,5.67
2022-11-27T07:53:21.629Z,5.68
2022-11-27T07:54:21.598Z,5.71
2022-11-27T07:55:21.608Z,5.71
2022-11-27T07:56:21.572Z,5.74
2022-11-27T07:57:21.595Z,5.72
2022-11-27T07:58:21.544Z,5.72
2022-11-27T07:59:21.578Z,5.72
2022-11-27T08:00:21.564Z,5.74
2022-11-27T08:01:21.678Z,5.72
2022-11-27T08:02:21.550Z,5.76
2022-11-27T08:03:21.585Z,5.78
2022-11-27T08:04:21.561Z,5.79
2022-11-27T08:05:21.532Z,5.82
2022-11-27T08:06:21.499Z,5.85
2022-11-27T08:07:21.499Z,5.89
2022-11-27T08:08:21.477Z,5.90
2022-11-27T08:09:21.466Z,5.90
2022-11-27T08:10:21.425Z,5.90
2022-11-27T08:11:21.417Z,5.91
2022-11-27T08:12:21.459Z,5.89
2022-11-27T08:13:21.445Z,5.90
2022-11-27T08:14:21.408Z,5.89
2022-11-27T08:15:21.385Z,5.85
2022-11-27T08:16:21.409Z,5.82
2022-11-27T08:17:21.385Z,5.82
2022-11-27T08:18:21.397Z,5.79
2022-11-27T08:19:21.348Z,5.81
2022-11-27T08:20:21.353Z,5.79
2022-11-27T08:21:21.319Z,5.81
2022-11-27T08:22:21.309Z,5.83
2022-11-27T08:23:21.329Z,5.81
2022-11-27T08:24:21.318Z,5.85
2022-11-27T08:25:21.280Z,5.89
2022-11-27T08:26:21.340Z,5.93
2022-11-27T08:27:21.273Z,5.93
2022-11-27T08:28:21.300Z,5.91
2022-11-27T08:29:21.269Z,5.91
2022-11-27T08:30:21.239Z,5.96
2022-11-27T08:31:21.318Z,5.97
2022-11-27T08:32:21.320Z,5.94
2022-11-27T08:33:21.240Z,5.93
2022-11-27T08:34:21.197Z,5.93
2022-11-27T08:35:21.176Z,5.96
2022-11-27T08:36:21.203Z,6.00
2022-11-27T08:37:21.215Z,6.01
2022-11-27T08:38:21.214Z,6.08
2022-11-27T08:39:21.138Z,6.04
2022-11-27T08:40:21.150Z,6.09
2022-11-27T08:41:21.134Z,6.08
2022-11-27T08:42:21.108Z,6.08
2022-11-27T08:43:21.126Z,6.11
2022-11-27T08:44:21.112Z,6.14
2022-11-27T08:45:21.116Z,6.17
2022-11-27T08:46:21.144Z,6.18
2022-11-27T08:47:21.070Z,6.19
2022-11-27T08:48:21.133Z,6.21
2022-11-27T08:49:21.063Z,6.19
2022-11-27T08:50:21.091Z,6.17
2022-11-27T08:51:21.052Z,6.17
2022-11-27T08:52:21.030Z,6.21
2022-11-27T08:53:21.088Z,6.18
2022-11-27T08:54:21.020Z,6.22
2022-11-27T08:55:21.101Z,6.28
2022-11-27T08:56:20.982Z,6.33
2022-11-27T08:57:20.976Z,6.40
2022-11-27T08:58:20.953Z,6.40
2022-11-27T08:59:20.961Z,6.48
2022-11-27T09:00:26.377Z,6.49
2022-11-27T09:01:22.026Z,6.52
2022-11-27T09:02:20.951Z,6.49
2022-11-27T09:03:20.932Z,6.54
2022-11-27T09:04:21.038Z,6.55
2022-11-27T09:05:20.903Z,6.61
2022-11-27T09:06:20.873Z,6.58
2022-11-27T09:07:20.925Z,6.58
2022-11-27T09:08:20.872Z,6.52
2022-11-27T09:09:20.859Z,6.48
2022-11-27T09:10:20.822Z,6.46
2022-11-27T09:11:20.830Z,6.49
2022-11-27T09:12:20.835Z,6.56
2022-11-27T09:13:20.825Z,6.62
2022-11-27T09:14:20.797Z,6.66
2022-11-27T09:15:20.813Z,6.64
2022-11-27T09:16:20.830Z,6.70
2022-11-27T09:17:20.768Z,6.71
2022-11-27T09:18:20.777Z,6.73
2022-11-27T09:19:20.785Z,6.77
2022-11-27T09:20:20.772Z,6.84
2022-11-27T09:21:20.724Z,6.88
2022-11-27T09:22:20.728Z,6.81
2022-11-27T09:23:20.754Z,6.88
2022-11-27T09:24:20.723Z,6.94
2022-11-27T09:25:20.690Z,6.95
2022-11-27T09:26:20.685Z,6.97
2022-11-27T09:27:20.683Z,6.99
2022-11-27T09:28:20.697Z,6.99
2022-11-27T09:29:20.692Z,7.06
2022-11-27T09:30:20.629Z,7.09
2022-11-27T09:31:20.623Z,7.13
2022-11-27T09:32:20.736Z,7.20
2022-11-27T09:33:20.609Z,7.21
2022-11-27T09:34:20.611Z,7.23
2022-11-27T09:35:20.684Z,7.27
2022-11-27T09:36:20.583Z,7.31
2022-11-27T09:37:20.558Z,7.31
2022-11-27T09:38:20.598Z,7.31
2022-11-27T09:39:20.579Z,7.30
2022-11-27T09:40:20.544Z,7.24
2022-11-27T09:41:20.561Z,7.16
2022-11-27T09:42:20.526Z,7.16
2022-11-27T09:43:20.641Z,7.21
2022-11-27T09:44:20.511Z,7.28
2022-11-27T09:45:20.503Z,7.30
2022-11-27T09:46:20.530Z,7.31
2022-11-27T09:47:20.520Z,7.31
2022-11-27T09:48:20.488Z,7.35
2022-11-27T09:49:20.492Z,7.42
2022-11-27T09:50:20.464Z,7.39
2022-11-27T09:51:20.429Z,7.39
2022-11-27T09:52:20.413Z,7.35
2022-11-27T09:53:20.486Z,7.35
2022-11-27T09:54:20.402Z,7.40
2022-11-27T09:55:20.401Z,7.46
2022-11-27T09:56:20.450Z,7.48
2022-11-27T09:57:20.403Z,7.50
2022-11-27T09:58:20.369Z,7.52
2022-11-27T09:59:20.411Z,7.58
2022-11-27T10:00:20.332Z,7.63
2022-11-27T10:01:20.399Z,7.60
2022-11-27T10:02:20.442Z,7.55
2022-11-27T10:03:20.366Z,7.52
2022-11-27T10:04:20.351Z,7.55
2022-11-27T10:05:20.494Z,7.55
2022-11-27T10:06:20.282Z,7.55
2022-11-27T10:07:20.362Z,7.57
2022-11-27T10:08:20.250Z,7.63
2022-11-27T10:09:20.298Z,7.63
2022-11-27T10:10:20.372Z,7.67
2022-11-27T10:11:20.226Z,7.74
2022-11-27T10:12:20.235Z,7.69
2022-11-27T10:13:20.213Z,7.69
2022-11-27T10:14:20.216Z,7.71
2022-11-27T10:15:20.214Z,7.71
2022-11-27T10:16:20.280Z,7.67
2022-11-27T10:17:20.265Z,7.68
2022-11-27T10:18:20.327Z,7.69
2022-11-27T10:19:20.185Z,7.71
2022-11-27T10:20:20.181Z,7.74
2022-11-27T10:21:20.129Z,7.80
2022-11-27T10:22:21.530Z,7.82
2022-11-27T10:23:20.137Z,7.86
2022-11-27T10:24:20.106Z,7.85
2022-11-27T10:25:20.130Z,7.92
2022-11-27T10:26:20.124Z,7.92
2022-11-27T10:27:20.104Z,7.95
2022-11-27T10:28:20.082Z,7.97
2022-11-27T10:29:20.175Z,8.00
2022-11-27T10:30:20.094Z,8.00
2022-11-27T10:31:20.094Z,8.04
2022-11-27T10:32:52.926Z,8.01
2022-11-27T10:33:21.018Z,8.04
2022-11-27T10:34:19.998Z,8.15
2022-11-27T10:35:20.009Z,8.10
2022-11-27T10:36:20.010Z,8.16
2022-11-27T10:37:19.958Z,8.20
2022-11-27T10:38:19.963Z,8.22
2022-11-27T10:39:19.958Z,8.19
2022-11-27T10:40:20.058Z,8.23
2022-11-27T10:41:48.834Z,8.25
2022-11-27T10:42:20.950Z,8.28
2022-11-27T10:43:19.924Z,8.28
2022-11-27T10:44:19.900Z,8.22
2022-11-27T10:45:19.920Z,8.20
2022-11-27T10:46:19.991Z,8.22
2022-11-27T10:47:19.948Z,8.29
2022-11-27T10:48:19.850Z,8.28
2022-11-27T10:49:19.833Z,8.28
2022-11-27T10:50:19.917Z,8.28
2022-11-27T10:51:19.836Z,8.29
2022-11-27T10:52:19.813Z,8.37
2022-11-27T10:53:19.836Z,8.36
2022-11-27T10:54:19.791Z,8.40
2022-11-27T10:55:19.813Z,8.41
2022-11-27T10:56:19.798Z,8.44
2022-11-27T10:57:19.872Z,8.44
2022-11-27T10:58:19.794Z,8.47
2022-11-27T10:59:19.777Z,8.53
2022-11-27T11:00:19.834Z,8.53
2022-11-27T11:01:19.834Z,8.52
2022-11-27T11:02:19.816Z,8.52
2022-11-27T11:03:19.722Z,8.55
2022-11-27T11:04:36.852Z,8.56
2022-11-27T11:06:22.830Z,8.61
2022-11-27T11:07:19.719Z,8.61
2022-11-27T11:08:19.693Z,8.66
2022-11-27T11:09:19.662Z,8.66
2022-11-27T11:10:19.692Z,8.70
2022-11-27T11:11:19.657Z,8.74
2022-11-27T11:12:19.660Z,8.80
2022-11-27T11:13:19.613Z,8.80
2022-11-27T11:14:19.647Z,8.86
2022-11-27T11:15:19.632Z,8.83
2022-11-27T11:16:24.192Z,8.87
2022-11-27T11:17:20.714Z,8.89
2022-11-27T11:18:19.575Z,8.81
2022-11-27T11:19:19.577Z,8.81
2022-11-27T11:20:19.528Z,8.81
2022-11-27T11:21:19.567Z,8.87
2022-11-27T11:22:19.536Z,8.86
2022-11-27T11:23:19.546Z,8.94
2022-11-27T11:24:19.527Z,8.92
2022-11-27T11:25:19.540Z,8.91
2022-11-27T11:26:19.462Z,8.89
2022-11-27T11:27:19.594Z,8.76
2022-11-27T11:28:19.490Z,8.71
2022-11-27T11:29:19.543Z,8.68
2022-11-27T11:30:19.432Z,8.66
2022-11-27T11:31:19.519Z,8.62
2022-11-27T11:32:19.457Z,8.55
2022-11-27T11:33:19.422Z,8.59
2022-11-27T11:34:19.384Z,8.58
2022-11-27T11:35:19.476Z,8.58
2022-11-27T11:36:19.433Z,8.61
2022-11-27T11:37:19.411Z,8.59
2022-11-27T11:38:19.518Z,8.66
2022-11-27T11:39:19.325Z,8.71
2022-11-27T11:40:19.385Z,8.77
2022-11-27T11:41:19.328Z,8.77
2022-11-27T11:42:19.332Z,8.81
2022-11-27T11:43:19.281Z,8.89
2022-11-27T11:44:19.283Z,8.92
2022-11-27T11:45:19.316Z,8.94
2022-11-27T11:46:19.435Z,9.02
2022-11-27T11:47:19.402Z,9.02
2022-11-27T11:48:19.261Z,9.14
2022-11-27T11:49:19.235Z,9.17
2022-11-27T11:50:19.233Z,9.18
2022-11-27T11:51:19.231Z,9.17
2022-11-27T11:52:19.197Z,8.91
2022-11-27T11:53:19.345Z,8.89
2022-11-27T11:54:19.193Z,8.87
2022-11-27T11:55:19.215Z,8.87
2022-11-27T11:56:19.205Z,8.87
2022-11-27T11:57:19.231Z,8.86
2022-11-27T11:58:19.141Z,8.83
2022-11-27T11:59:19.177Z,8.86
2022-11-27T12:00:19.194Z,8.91
2022-11-27T12:01:26.894Z,8.95
2022-11-27T12:02:20.246Z,8.98
2022-11-27T12:03:19.112Z,8.98
2022-11-27T12:04:19.118Z,9.01
2022-11-27T12:05:19.111Z,8.95
2022-11-27T12:06:19.206Z,8.95
2022-11-27T12:07:19.133Z,8.95
2022-11-27T12:08:19.076Z,8.94
2022-11-27T12:09:19.091Z,8.94
2022-11-27T12:10:19.073Z,8.96
2022-11-27T12:11:19.051Z,8.98
2022-11-27T12:12:19.072Z,8.94
2022-11-27T12:13:19.088Z,8.95
2022-11-27T12:14:19.019Z,8.94
2022-11-27T12:15:18.988Z,8.94
2022-11-27T12:16:19.022Z,8.91
2022-11-27T12:17:19.000Z,8.91
2022-11-27T12:18:18.954Z,8.94
2022-11-27T12:19:18.963Z,8.95
2022-11-27T12:20:19.029Z,8.98
2022-11-27T12:21:18.939Z,9.02
2022-11-27T12:22:18.911Z,8.98
2022-11-27T12:23:18.886Z,8.98
2022-11-27T12:24:18.898Z,8.92
2022-11-27T12:25:18.891Z,8.86
2022-11-27T12:26:18.891Z,8.81
2022-11-27T12:27:18.852Z,8.73
2022-11-27T12:28:18.907Z,8.70
2022-11-27T12:29:18.850Z,8.66
2022-11-27T12:30:18.838Z,8.59
2022-11-27T12:31:18.859Z,8.61
2022-11-27T12:32:18.821Z,8.59
2022-11-27T12:33:18.809Z,8.56
2022-11-27T12:34:18.775Z,8.53
2022-11-27T12:35:18.763Z,8.52
2022-11-27T12:36:18.779Z,8.53
2022-11-27T12:37:18.752Z,8.55
2022-11-27T12:38:18.801Z,8.59
2022-11-27T12:39:18.752Z,8.62
2022-11-27T12:40:18.748Z,8.61
2022-11-27T12:41:18.738Z,8.59
2022-11-27T12:42:21.996Z,8.59
2022-11-27T12:43:18.691Z,8.58
2022-11-27T12:44:18.722Z,8.58
2022-11-27T12:45:18.658Z,8.56
2022-11-27T12:46:18.715Z,8.56
2022-11-27T12:47:18.674Z,8.53
2022-11-27T12:48:18.632Z,8.53
2022-11-27T12:49:18.623Z,8.53
2022-11-27T12:50:18.648Z,8.56
2022-11-27T12:51:18.628Z,8.56
2022-11-27T12:52:18.615Z,8.56
2022-11-27T12:53:24.421Z,8.55
2022-11-27T12:54:19.606Z,8.56
2022-11-27T12:55:18.605Z,8.59
2022-11-27T12:56:18.589Z,8.59
2022-11-27T12:57:18.611Z,8.59
2022-11-27T12:58:18.557Z,8.63
2022-11-27T12:59:18.525Z,8.61
2022-11-27T13:00:18.576Z,8.58
2022-11-27T13:01:22.447Z,8.56
2022-11-27T13:02:19.589Z,8.55
2022-11-27T13:03:18.528Z,8.56
2022-11-27T13:04:18.517Z,8.52
2022-11-27T13:05:18.553Z,8.55
2022-11-27T13:06:18.487Z,8.55
2022-11-27T13:07:18.495Z,8.56
2022-11-27T13:08:18.449Z,8.58
2022-11-27T13:09:18.436Z,8.56
2022-11-27T13:10:18.457Z,8.62
2022-11-27T13:11:18.410Z,8.61
2022-11-27T13:12:18.408Z,8.63
2022-11-27T13:13:18.383Z,8.62
2022-11-27T13:14:18.380Z,8.62
2022-11-27T13:15:18.361Z,8.55
2022-11-27T13:16:18.537Z,8.50
2022-11-27T13:17:18.378Z,8.52
2022-11-27T13:18:18.340Z,8.56
2022-11-27T13:19:18.343Z,8.61